Fruitland, UT

9:52 PM MST on February 24, 2017 (GMT -0700)
2 miles East of store | | Change Station

Elev 6670 ft 40.20 °N, 110.81 °W | Updated 34 seconds ago

Clear
Clear
9.3 °F
Feels Like 9 °F
N
1.0
Wind Variable Wind from ENE

Today
High -- | Low -- °F
--% Chance of Precip.
Yesterday
High -- | Low -- °F
Precip. -- in
Pressure 30.10 in
Visibility 10.0 miles
Clouds Clear
Windchill 9 °F
Dew Point 6 °F
Humidity 88%
Rainfall 0.00 in
Snow Depth Not available.
7:03 AM 6:10 PM
Waning Crescent, 2% visible
METAR K36U 250437Z AUTO 00000KT 10SM CLR M14/M16 A3010 RMK AO2
Pressure 30.10 in
Visibility 10.0 miles
Clouds Clear
Windchill 9 °F
Dew Point 6 °F
Humidity 88%
Rainfall 0.00 in
Snow Depth Not available.
7:03 AM 6:10 PM
Waning Crescent, 2% visible
METAR K36U 250437Z AUTO 00000KT 10SM CLR M14/M16 A3010 RMK AO2

Get Your Daily Forecast Email!

Thanks for signing up!

Be on the lookout for a verification email in your inbox.

You'll start receiving the daily forecast at 8 AM.

×

10-Day Weather Forecast

Almanac

Astronomy

Feb. 24, 2017 Rise Set
Actual Time
Civil Twilight
Nautical Twilight
Astronomical Twilight
Moon
Length of Visible Light
Length of Day
Tomorrow will be .
, % of the Moon is Illuminated

Today's Extremes

State Highs State Lows

Community

WunderPhotos

Upload Photos

1,962,540 photos uploaded!

WunderBlog® & News

Nearby

Air Quality

  Air Quality AQ Index Pollutant
Not available.

Snow Depth

Station Depth Elevation

Earthquake Activity

City Distance Mag. Time & Date
Minimum magnitude displayed is 2.5.

Coastal Water Temperatures

Place Temperature

Stations

Nearby Weather Stations

Station Location Temp. Windchill Dew Point Humidity Wind Precip. Elev Updated Type
                   

Watches & Warnings

There are currently no watches in effect.